createdAt,value
2019-02-11T00:01:39.213Z,100251.13
2019-02-11T00:06:30.983Z,100255.75
2019-02-11T00:11:22.797Z,100269.73
2019-02-11T00:16:14.874Z,100275.48
2019-02-11T00:21:06.840Z,100291.09
2019-02-11T00:25:58.866Z,100312.32
2019-02-11T00:30:50.602Z,100320.45
2019-02-11T00:35:42.447Z,100327.63
2019-02-11T00:40:34.265Z,100332.63
2019-02-11T00:45:25.932Z,100349.80
2019-02-11T00:50:18.734Z,100355.98
2019-02-11T00:55:10.461Z,100371.44
2019-02-11T01:00:02.483Z,100386.94
2019-02-11T01:04:56.534Z,100392.96
2019-02-11T01:09:48.078Z,100406.27
2019-02-11T01:14:40.029Z,100424.11
2019-02-11T01:19:32.029Z,100433.05
2019-02-11T01:24:23.806Z,100441.88
2019-02-11T01:29:15.786Z,100448.28
2019-02-11T01:34:10.323Z,100455.98
2019-02-11T01:39:01.630Z,100470.56
2019-02-11T01:43:53.720Z,100479.12
2019-02-11T01:48:46.010Z,100479.51
2019-02-11T01:53:39.701Z,100497.02
2019-02-11T01:58:31.179Z,100499.13
2019-02-11T02:03:22.942Z,100509.17
2019-02-11T02:08:14.860Z,100507.47
2019-02-11T02:13:06.556Z,100496.75
2019-02-11T02:17:58.514Z,100510.08
2019-02-11T02:22:50.547Z,100526.56
2019-02-11T02:27:41.504Z,100528.39
2019-02-11T02:32:33.715Z,100558.52
2019-02-11T02:37:25.800Z,100568.42
2019-02-11T02:42:17.847Z,100586.81
2019-02-11T02:47:09.839Z,100596.55
2019-02-11T02:52:00.258Z,100595.59
2019-02-11T02:56:50.845Z,100614.05
2019-02-11T03:01:41.556Z,100611.62
2019-02-11T03:06:33.314Z,100625.49
2019-02-11T03:11:25.234Z,100640.63
2019-02-11T03:16:16.131Z,100645.44
2019-02-11T03:21:06.939Z,100654.14
2019-02-11T03:25:58.684Z,100653.90
2019-02-11T03:30:50.869Z,100660.30
2019-02-11T03:35:42.704Z,100687.34
2019-02-11T03:40:34.762Z,100686.98
2019-02-11T03:45:26.727Z,100701.90
2019-02-11T03:50:18.755Z,100727.74
2019-02-11T03:55:10.561Z,100729.58
2019-02-11T04:00:01.808Z,100747.24
2019-02-11T04:04:52.271Z,100743.08
2019-02-11T04:09:42.984Z,100756.08
2019-02-11T04:14:33.876Z,100768.55
2019-02-11T04:19:24.872Z,100769.16
2019-02-11T04:24:16.754Z,100791.83
2019-02-11T04:29:08.665Z,100802.80
2019-02-11T04:34:00.439Z,100813.91
2019-02-11T04:38:52.966Z,100819.43
2019-02-11T04:43:44.812Z,100824.45
2019-02-11T04:48:36.866Z,100841.55
2019-02-11T04:53:28.681Z,100842.18
2019-02-11T04:58:20.714Z,100859.45
2019-02-11T05:03:12.548Z,100863.48
2019-02-11T05:08:04.564Z,100868.51
2019-02-11T05:12:56.466Z,100877.72
2019-02-11T05:17:48.272Z,100865.47
2019-02-11T05:22:39.941Z,100876.71
2019-02-11T05:27:31.955Z,100890.27
2019-02-11T05:32:23.953Z,100895.89
2019-02-11T05:37:15.669Z,100892.44
2019-02-11T05:42:08.028Z,100906.19
2019-02-11T05:46:59.665Z,100913.14
2019-02-11T05:51:51.545Z,100921.27
2019-02-11T05:56:43.809Z,100941.86
2019-02-11T06:01:35.509Z,100945.28
2019-02-11T06:06:27.480Z,100948.84
2019-02-11T06:11:19.486Z,100966.73
2019-02-11T06:16:11.415Z,100985.79
2019-02-11T06:21:03.753Z,101003.63
2019-02-11T06:25:56.345Z,101014.84
2019-02-11T06:30:48.296Z,101028.19
2019-02-11T06:35:40.394Z,101047.41
2019-02-11T06:40:32.046Z,101047.20
2019-02-11T06:45:24.046Z,101070.23
2019-02-11T06:50:15.994Z,101083.12
2019-02-11T06:55:07.893Z,101084.91
2019-02-11T07:00:00.242Z,101107.84
2019-02-11T07:04:52.025Z,101113.27
2019-02-11T07:09:46.537Z,101131.05
2019-02-11T07:14:37.769Z,101144.23
2019-02-11T07:19:29.663Z,101145.40
2019-02-11T07:24:21.509Z,101159.61
2019-02-11T07:29:13.475Z,101171.95
2019-02-11T07:34:05.598Z,101178.33
2019-02-11T07:38:58.366Z,101183.69
2019-02-11T07:43:50.156Z,101199.02
2019-02-11T07:48:41.960Z,101213.86
2019-02-11T07:53:33.825Z,101212.95
2019-02-11T07:58:25.848Z,101212.59
2019-02-11T08:03:17.908Z,101225.54
2019-02-11T08:08:09.570Z,101229.28
2019-02-11T08:13:03.497Z,101243.37
2019-02-11T08:17:54.828Z,101246.96
2019-02-11T08:22:46.897Z,101255.17
2019-02-11T08:27:39.038Z,101274.45
2019-02-11T08:32:31.234Z,101279.28
2019-02-11T08:37:23.398Z,101292.86
2019-02-11T08:42:15.673Z,101309.42
2019-02-11T08:47:07.808Z,101329.74
2019-02-11T08:51:59.772Z,101332.07
2019-02-11T08:56:51.763Z,101328.69
2019-02-11T09:01:43.697Z,101340.11
2019-02-11T09:06:35.834Z,101335.52
2019-02-11T09:11:27.680Z,101345.85
2019-02-11T09:16:19.688Z,101359.48
2019-02-11T09:21:11.712Z,101377.36
2019-02-11T09:26:03.824Z,101384.36
2019-02-11T09:30:55.932Z,101395.19
2019-02-11T09:35:51.472Z,101407.22
2019-02-11T09:40:42.794Z,101422.38
2019-02-11T09:45:34.613Z,101419.09
2019-02-11T09:50:26.531Z,101431.64
2019-02-11T09:55:18.128Z,101429.52
2019-02-11T10:00:09.788Z,101426.28
2019-02-11T10:05:01.845Z,101446.06
2019-02-11T10:09:53.946Z,101451.86
2019-02-11T10:14:45.675Z,101458.19
2019-02-11T10:19:36.840Z,101463.08
2019-02-11T10:24:27.734Z,101473.66
2019-02-11T10:29:19.566Z,101481.77
2019-02-11T10:34:10.735Z,101496.62
2019-02-11T10:39:02.116Z,101491.62
2019-02-11T10:43:52.359Z,101505.39
2019-02-11T10:48:43.597Z,101512.16
2019-02-11T10:53:35.222Z,101518.77
2019-02-11T10:58:26.495Z,101528.37
2019-02-11T11:03:17.275Z,101538.36
2019-02-11T11:08:08.293Z,101545.14
2019-02-11T11:12:59.093Z,101549.87
2019-02-11T11:17:50.074Z,101567.19
2019-02-11T11:22:41.106Z,101578.14
2019-02-11T11:27:32.032Z,101587.20
2019-02-11T11:32:23.673Z,101607.58
2019-02-11T11:37:15.124Z,101618.05
2019-02-11T11:42:05.423Z,101620.89
2019-02-11T11:46:58.527Z,101649.73
2019-02-11T11:51:48.560Z,101643.69
2019-02-11T11:56:39.552Z,101639.63
2019-02-11T12:01:31.344Z,101645.09
2019-02-11T12:06:27.488Z,101661.66
2019-02-11T12:11:18.165Z,101659.94
2019-02-11T12:16:09.860Z,101671.55
2019-02-11T12:21:01.428Z,101668.23
2019-02-11T12:25:52.834Z,101675.27
2019-02-11T12:30:44.193Z,101688.18
2019-02-11T12:35:35.340Z,101694.97
2019-02-11T12:40:26.802Z,101706.65
2019-02-11T12:45:17.693Z,101725.88
2019-02-11T12:50:08.589Z,101729.19
2019-02-11T12:54:59.051Z,101719.88
2019-02-11T12:59:49.933Z,101736.55
2019-02-11T13:04:40.731Z,101736.75
2019-02-11T13:09:31.765Z,101752.77
2019-02-11T13:14:22.197Z,101773.10
2019-02-11T13:19:13.096Z,101779.28
2019-02-11T13:24:03.891Z,101818.16
2019-02-11T13:28:54.238Z,101837.55
2019-02-11T13:33:44.727Z,101837.08
2019-02-11T13:38:35.284Z,101826.41
2019-02-11T13:43:26.297Z,101837.73
2019-02-11T13:48:17.176Z,101845.06
2019-02-11T13:53:08.232Z,101838.50
2019-02-11T13:58:00.041Z,101840.20
2019-02-11T14:02:52.218Z,101861.48
2019-02-11T14:07:43.299Z,101875.66
2019-02-11T14:12:34.384Z,101882.52
2019-02-11T14:17:25.844Z,101883.52
2019-02-11T14:22:16.906Z,101893.91
2019-02-11T14:27:08.086Z,101900.91
2019-02-11T14:31:59.251Z,101910.92
2019-02-11T14:36:50.163Z,101933.16
2019-02-11T14:41:41.113Z,101926.77
2019-02-11T14:46:32.030Z,101929.89
2019-02-11T14:51:23.225Z,101939.61
2019-02-11T14:56:14.685Z,101940.39
2019-02-11T15:01:05.878Z,101947.47
2019-02-11T15:05:56.586Z,101958.78
2019-02-11T15:10:47.181Z,101968.63
2019-02-11T15:15:39.528Z,101988.24
2019-02-11T15:20:30.026Z,101992.33
2019-02-11T15:25:21.279Z,102007.68
2019-02-11T15:30:13.231Z,102016.05
2019-02-11T15:35:04.553Z,102035.25
2019-02-11T15:39:55.463Z,102041.77
2019-02-11T15:44:46.543Z,102058.20
2019-02-11T15:49:37.709Z,102067.86
2019-02-11T15:54:28.682Z,102089.83
2019-02-11T15:59:19.499Z,102095.92
2019-02-11T16:04:12.665Z,102100.58
2019-02-11T16:09:06.493Z,102116.08
2019-02-11T16:13:56.270Z,102134.58
2019-02-11T16:18:53.592Z,102141.81
2019-02-11T16:23:44.092Z,102159.56
2019-02-11T16:28:34.692Z,102179.83
2019-02-11T16:33:26.078Z,102194.91
2019-02-11T16:38:16.767Z,102215.11
2019-02-11T16:43:07.828Z,102228.77
2019-02-11T16:47:59.677Z,102240.75
2019-02-11T16:52:50.879Z,102257.55
2019-02-11T16:57:43.208Z,102273.44
2019-02-11T17:02:33.878Z,102286.27
2019-02-11T17:07:24.648Z,102305.19
2019-02-11T17:12:15.174Z,102321.46
2019-02-11T17:17:05.613Z,102353.55
2019-02-11T17:21:56.605Z,102365.67
2019-02-11T17:26:48.650Z,102360.41
2019-02-11T17:31:40.439Z,102362.49
2019-02-11T17:36:32.208Z,102387.33
2019-02-11T17:41:23.722Z,102389.02
2019-02-11T17:46:15.461Z,102386.61
2019-02-11T17:51:07.214Z,102402.87
2019-02-11T17:55:58.863Z,102413.39
2019-02-11T18:00:50.796Z,102423.95
2019-02-11T18:05:42.525Z,102428.09
2019-02-11T18:10:34.385Z,102431.44
2019-02-11T18:15:26.226Z,102426.97
2019-02-11T18:20:18.028Z,102430.92
2019-02-11T18:25:09.912Z,102450.20
2019-02-11T18:30:01.990Z,102450.21
2019-02-11T18:34:53.569Z,102463.65
2019-02-11T18:39:45.601Z,102477.30
2019-02-11T18:44:37.518Z,102478.78
2019-02-11T18:49:36.046Z,102490.51
2019-02-11T18:54:26.359Z,102500.47
2019-02-11T18:59:26.241Z,102516.51
2019-02-11T19:04:17.393Z,102518.98
2019-02-11T19:09:08.725Z,102513.22
2019-02-11T19:14:02.409Z,102502.00
2019-02-11T19:18:53.478Z,102484.05
2019-02-11T19:23:45.483Z,102490.11
2019-02-11T19:28:36.827Z,102510.57
2019-02-11T19:33:28.157Z,102519.55
2019-02-11T19:38:19.960Z,102553.25
2019-02-11T19:43:11.840Z,102556.93
2019-02-11T19:48:03.525Z,102547.86
2019-02-11T19:52:55.594Z,102542.47
2019-02-11T19:57:45.923Z,102553.87
2019-02-11T20:02:37.878Z,102566.22
2019-02-11T20:07:29.718Z,102572.14
2019-02-11T20:12:22.563Z,102578.61
2019-02-11T20:17:13.920Z,102583.22
2019-02-11T20:22:05.649Z,102593.08
2019-02-11T20:26:57.541Z,102602.89
2019-02-11T20:31:48.315Z,102606.61
2019-02-11T20:36:39.564Z,102617.88
2019-02-11T20:41:30.168Z,102622.00
2019-02-11T20:46:20.907Z,102634.98
2019-02-11T20:51:12.578Z,102638.81
2019-02-11T20:56:04.456Z,102647.14
2019-02-11T21:00:56.396Z,102650.92
2019-02-11T21:05:48.327Z,102657.59
2019-02-11T21:10:39.973Z,102662.30
2019-02-11T21:15:31.945Z,102670.69
2019-02-11T21:20:23.685Z,102682.22
2019-02-11T21:25:15.778Z,102685.80
2019-02-11T21:30:07.553Z,102697.39
2019-02-11T21:34:59.372Z,102709.38
2019-02-11T21:39:51.282Z,102714.83
2019-02-11T21:44:43.398Z,102719.27
2019-02-11T21:49:35.215Z,102724.19
2019-02-11T21:54:27.077Z,102715.41
2019-02-11T21:59:17.405Z,102719.36
2019-02-11T22:04:09.324Z,102730.92
2019-02-11T22:08:59.834Z,102730.13
2019-02-11T22:13:51.599Z,102735.41
2019-02-11T22:18:44.252Z,102745.59
2019-02-11T22:23:34.844Z,102740.29
2019-02-11T22:28:25.330Z,102737.09
2019-02-11T22:33:17.114Z,102745.91
2019-02-11T22:38:09.091Z,102749.13
2019-02-11T22:43:00.903Z,102755.13
2019-02-11T22:47:51.537Z,102755.55
2019-02-11T22:52:42.441Z,102759.80
2019-02-11T22:57:35.145Z,102760.24
2019-02-11T23:02:26.899Z,102774.02
2019-02-11T23:07:18.717Z,102785.26
2019-02-11T23:12:09.790Z,102783.75
2019-02-11T23:17:01.025Z,102801.06
2019-02-11T23:21:52.891Z,102793.30
2019-02-11T23:26:44.692Z,102785.73
2019-02-11T23:31:36.427Z,102776.22
2019-02-11T23:36:28.168Z,102787.03
2019-02-11T23:41:20.067Z,102795.03
2019-02-11T23:46:12.135Z,102798.83
2019-02-11T23:51:03.974Z,102805.61
2019-02-11T23:55:55.818Z,102817.47
